createdAt,value
2019-05-13T00:04:14.092Z,12.52
2019-05-13T00:09:20.365Z,8.76
2019-05-13T00:14:26.471Z,10.57
2019-05-13T00:19:33.908Z,13.39
2019-05-13T00:24:40.464Z,7.83
2019-05-13T00:29:46.578Z,14.51
2019-05-13T00:34:53.397Z,11.75
2019-05-13T00:39:59.899Z,8.25
2019-05-13T00:45:06.346Z,11.37
2019-05-13T00:50:14.294Z,9.75
2019-05-13T00:55:23.640Z,10.18
2019-05-13T01:00:30.953Z,10.52
2019-05-13T01:05:37.201Z,11.70
2019-05-13T01:10:45.151Z,10.70
2019-05-13T01:15:54.190Z,10.50
2019-05-13T01:20:53.633Z,10.28
2019-05-13T01:26:00.211Z,9.50
2019-05-13T01:31:06.473Z,12.13
2019-05-13T01:36:13.453Z,12.18
2019-05-13T01:41:20.355Z,10.58
2019-05-13T01:46:26.743Z,11.19
2019-05-13T01:51:33.496Z,9.35
2019-05-13T01:56:40.084Z,10.21
2019-05-13T02:01:46.476Z,13.23
2019-05-13T02:06:54.331Z,11.09
2019-05-13T02:12:01.246Z,9.30
2019-05-13T02:17:07.844Z,10.64
2019-05-13T02:22:14.724Z,7.45
2019-05-13T02:27:21.228Z,10.19
2019-05-13T02:32:27.347Z,8.44
2019-05-13T02:37:34.416Z,10.39
2019-05-13T02:42:43.641Z,8.51
2019-05-13T02:47:52.203Z,7.12
2019-05-13T02:53:02.393Z,11.34
2019-05-13T02:58:12.597Z,10.63
2019-05-13T03:03:12.891Z,9.08
2019-05-13T03:08:38.584Z,9.43
2019-05-13T03:13:26.169Z,10.59
2019-05-13T03:18:33.400Z,11.94
2019-05-13T03:23:43.648Z,9.32
2019-05-13T03:28:43.537Z,8.98
2019-05-13T03:33:55.522Z,11.57
2019-05-13T03:39:04.465Z,9.04
2019-05-13T03:43:58.948Z,10.09
2019-05-13T03:49:05.335Z,11.36
2019-05-13T03:54:12.869Z,6.37
2019-05-13T03:59:22.508Z,9.81
2019-05-13T04:04:23.377Z,11.82
2019-05-13T04:09:32.564Z,9.91
2019-05-13T04:14:33.337Z,9.17
2019-05-13T04:19:42.332Z,10.20
2019-05-13T04:24:48.829Z,9.92
2019-05-13T04:29:55.029Z,9.42
2019-05-13T04:35:03.705Z,7.60
2019-05-13T04:40:12.682Z,11.49
2019-05-13T04:45:19.501Z,9.26
2019-05-13T04:50:25.951Z,12.87
2019-05-13T04:55:33.246Z,10.79
2019-05-13T05:00:42.297Z,10.42
2019-05-13T05:05:48.974Z,10.47
2019-05-13T05:10:55.469Z,10.19
2019-05-13T05:16:02.821Z,9.95
2019-05-13T05:21:11.796Z,10.73
2019-05-13T05:26:21.963Z,9.42
2019-05-13T05:31:28.413Z,9.49
2019-05-13T05:36:34.696Z,13.32
2019-05-13T05:41:42.221Z,10.47
2019-05-13T05:46:51.413Z,9.34
2019-05-13T05:51:57.798Z,11.48
2019-05-13T05:57:04.451Z,13.60
2019-05-13T06:02:12.174Z,18.66
2019-05-13T06:07:18.839Z,25.54
2019-05-13T06:12:25.086Z,28.37
2019-05-13T06:17:32.611Z,15.48
2019-05-13T06:22:39.074Z,29.07
2019-05-13T06:27:45.689Z,25.70
2019-05-13T06:32:52.609Z,11.00
2019-05-13T06:38:02.508Z,8.51
2019-05-13T06:43:09.164Z,9.98
2019-05-13T06:48:15.326Z,12.36
2019-05-13T06:53:21.857Z,10.00
2019-05-13T06:58:28.315Z,9.85
2019-05-13T07:03:34.626Z,7.69
2019-05-13T07:08:41.688Z,7.61
2019-05-13T07:13:48.348Z,30.43
2019-05-13T07:18:54.598Z,10.90
2019-05-13T07:24:02.295Z,5.54
2019-05-13T07:29:12.652Z,6.73
2019-05-13T07:34:11.951Z,8.17
2019-05-13T07:39:18.842Z,8.09
2019-05-13T07:44:25.135Z,9.58
2019-05-13T07:49:31.843Z,7.95
2019-05-13T07:54:38.564Z,5.62
2019-05-13T07:59:44.956Z,7.39
2019-05-13T08:04:52.963Z,7.88
2019-05-13T08:10:02.943Z,5.75
2019-05-13T08:15:11.915Z,6.36
2019-05-13T08:20:18.444Z,4.65
2019-05-13T08:25:24.705Z,6.05
2019-05-13T08:30:31.918Z,8.73
2019-05-13T08:35:38.213Z,5.18
2019-05-13T08:40:44.569Z,11.03
2019-05-13T08:45:52.417Z,5.34
2019-05-13T08:50:52.296Z,6.76
2019-05-13T08:56:01.460Z,7.81
2019-05-13T09:01:07.879Z,5.16
2019-05-13T09:06:14.125Z,6.41
2019-05-13T09:11:22.162Z,4.43
2019-05-13T09:16:28.914Z,5.41
2019-05-13T09:21:35.276Z,6.05
2019-05-13T09:26:42.222Z,12.17
2019-05-13T09:31:51.684Z,5.33
2019-05-13T09:36:58.593Z,4.75
2019-05-13T09:42:04.873Z,5.02
2019-05-13T09:47:12.432Z,6.04
2019-05-13T09:52:19.239Z,3.29
2019-05-13T09:57:25.532Z,4.08
2019-05-13T10:02:32.205Z,2.66
2019-05-13T10:07:38.720Z,3.42
2019-05-13T10:12:44.964Z,2.83
2019-05-13T10:17:52.678Z,3.28
2019-05-13T10:23:01.637Z,2.81
2019-05-13T10:28:08.819Z,2.43
2019-05-13T10:33:15.066Z,3.66
2019-05-13T10:38:22.727Z,2.39
2019-05-13T10:48:29.731Z,3.03
2019-05-13T10:53:35.893Z,3.89
2019-05-13T10:58:43.250Z,2.81
2019-05-13T11:03:52.138Z,4.84
2019-05-13T11:09:01.565Z,5.05
2019-05-13T11:14:11.444Z,7.48
2019-05-13T11:19:12.177Z,4.74
2019-05-13T11:24:18.680Z,4.03
2019-05-13T11:29:24.905Z,4.43
2019-05-13T11:34:32.865Z,3.84
2019-05-13T11:39:42.831Z,4.02
2019-05-13T11:44:52.555Z,5.20
2019-05-13T11:50:01.644Z,8.97
2019-05-13T11:55:12.775Z,5.11
2019-05-13T12:00:12.867Z,5.06
2019-05-13T12:05:10.070Z,5.69
2019-05-13T12:10:16.869Z,5.34
2019-05-13T12:15:33.668Z,3.76
2019-05-13T12:20:32.851Z,6.16
2019-05-13T12:25:42.891Z,5.51
2019-05-13T12:30:41.799Z,5.09
2019-05-13T12:35:48.441Z,4.29
2019-05-13T12:40:54.881Z,4.92
2019-05-13T12:46:06.049Z,3.34
2019-05-13T12:51:03.308Z,5.30
2019-05-13T12:56:11.962Z,5.94
2019-05-13T13:01:23.537Z,3.52
2019-05-13T13:06:31.312Z,4.56
2019-05-13T13:11:27.399Z,4.20
2019-05-13T13:16:35.015Z,5.49
2019-05-13T13:21:42.439Z,5.34
2019-05-13T13:26:48.820Z,3.03
2019-05-13T13:31:55.801Z,8.02
2019-05-13T13:37:05.130Z,4.59
2019-05-13T13:42:13.133Z,5.07
2019-05-13T13:47:23.994Z,4.13
2019-05-13T13:52:22.684Z,4.30
2019-05-13T13:57:32.357Z,3.63
2019-05-13T14:02:38.861Z,7.22
2019-05-13T14:06:26.939Z,3.45
2019-05-13T14:07:45.143Z,4.48
2019-05-13T14:12:52.502Z,5.04
2019-05-13T14:17:58.925Z,2.86
2019-05-13T14:23:05.193Z,9.20
2019-05-13T14:28:11.627Z,5.50
2019-05-13T14:33:17.975Z,4.15
2019-05-13T14:38:24.406Z,4.11
2019-05-13T14:43:31.757Z,3.87
2019-05-13T14:48:38.292Z,12.61
2019-05-13T14:53:44.593Z,4.45
2019-05-13T14:58:52.013Z,4.87
2019-05-13T15:03:59.202Z,3.05
2019-05-13T15:09:05.725Z,3.92
2019-05-13T15:14:12.124Z,8.74
2019-05-13T15:19:18.428Z,5.38
2019-05-13T15:24:25.072Z,8.93
2019-05-13T15:29:31.577Z,4.25
2019-05-13T15:34:37.965Z,5.43
2019-05-13T15:39:44.259Z,3.27
2019-05-13T15:44:53.102Z,3.20
2019-05-13T15:50:02.165Z,5.55
2019-05-13T15:55:08.993Z,4.23
2019-05-13T16:00:15.426Z,4.54
2019-05-13T16:05:21.774Z,4.62
2019-05-13T16:10:28.108Z,3.37
2019-05-13T16:15:34.424Z,4.53
2019-05-13T16:20:44.533Z,4.45
2019-05-13T16:25:41.879Z,3.78
2019-05-13T16:30:51.692Z,4.42
2019-05-13T16:36:02.736Z,5.34
2019-05-13T16:41:04.773Z,4.03
2019-05-13T16:46:01.536Z,5.32
2019-05-13T16:51:07.839Z,3.66
2019-05-13T16:56:26.807Z,4.74
2019-05-13T17:01:22.723Z,4.83
2019-05-13T17:06:32.167Z,3.44
2019-05-13T17:11:41.331Z,3.31
2019-05-13T17:16:48.718Z,4.37
2019-05-13T17:21:55.271Z,4.16
2019-05-13T17:27:02.802Z,3.20
2019-05-13T17:32:11.437Z,4.13
2019-05-13T17:37:18.598Z,2.82
2019-05-13T17:42:25.347Z,4.12
2019-05-13T17:47:33.766Z,3.68
2019-05-13T17:52:40.603Z,4.42
2019-05-13T17:57:47.324Z,2.91
2019-05-13T18:02:54.097Z,5.26
2019-05-13T18:08:01.870Z,4.02
2019-05-13T18:13:09.084Z,4.15
2019-05-13T18:18:15.524Z,4.09
2019-05-13T18:23:22.489Z,3.31
2019-05-13T18:28:31.285Z,4.45
2019-05-13T18:33:38.098Z,4.16
2019-05-13T18:38:47.052Z,4.13
2019-05-13T18:43:55.016Z,4.76
2019-05-13T18:49:02.194Z,4.77
2019-05-13T18:54:08.593Z,3.25
2019-05-13T18:59:14.853Z,4.03
2019-05-13T19:04:22.473Z,3.97
2019-05-13T19:09:30.969Z,3.94
2019-05-13T19:14:37.737Z,4.68
2019-05-13T19:19:44.031Z,9.45
2019-05-13T19:24:51.818Z,3.74
2019-05-13T19:29:58.263Z,4.26
2019-05-13T19:35:04.616Z,5.70
2019-05-13T19:40:12.945Z,5.14
2019-05-13T19:45:21.746Z,3.76
2019-05-13T19:50:28.391Z,3.79
2019-05-13T19:55:34.670Z,4.04
2019-05-13T20:00:42.366Z,4.19
2019-05-13T20:05:51.290Z,3.89
2019-05-13T20:10:58.182Z,6.55
2019-05-13T20:16:08.351Z,5.48
2019-05-13T20:21:04.840Z,4.00
2019-05-13T20:26:11.218Z,4.99
2019-05-13T20:31:17.720Z,5.40
2019-05-13T20:36:24.431Z,4.44
2019-05-13T20:41:31.846Z,5.16
2019-05-13T20:46:38.649Z,4.05
2019-05-13T20:51:45.208Z,7.12
2019-05-13T20:56:51.902Z,5.05
2019-05-13T21:01:58.332Z,5.30
2019-05-13T21:07:04.766Z,4.30
2019-05-13T21:12:12.046Z,4.47
2019-05-13T21:17:18.532Z,3.81
2019-05-13T21:22:25.101Z,5.67
2019-05-13T21:27:32.001Z,4.19
2019-05-13T21:32:38.657Z,5.85
2019-05-13T21:37:45.164Z,4.87
2019-05-13T21:42:52.622Z,4.08
2019-05-13T21:48:01.540Z,5.39
2019-05-13T21:53:08.422Z,6.28
2019-05-13T21:58:14.895Z,5.58
2019-05-13T22:03:21.517Z,5.27
2019-05-13T22:08:27.970Z,5.12
2019-05-13T22:13:34.294Z,6.30
2019-05-13T22:18:41.717Z,6.17
2019-05-13T22:23:48.624Z,5.68
2019-05-13T22:28:54.942Z,4.69
2019-05-13T22:34:01.547Z,4.47
2019-05-13T22:39:08.029Z,4.92
2019-05-13T22:44:14.500Z,4.24
2019-05-13T22:49:22.108Z,6.00
2019-05-13T22:54:31.643Z,4.98
2019-05-13T22:59:38.109Z,5.07
2019-05-13T23:04:44.490Z,5.49
2019-05-13T23:09:51.916Z,6.24
2019-05-13T23:15:01.192Z,4.51
2019-05-13T23:20:07.644Z,4.49
2019-05-13T23:25:14.000Z,4.65
2019-05-13T23:30:20.264Z,5.50
2019-05-13T23:35:26.642Z,4.93
2019-05-13T23:40:33.109Z,5.20
2019-05-13T23:45:41.578Z,5.39
2019-05-13T23:50:48.273Z,5.38
2019-05-13T23:55:54.505Z,6.43
